sensor_id;sensor_type;location;lat;lon;timestamp;P1;durP1;ratioP1;P2;durP2;ratioP2
65641;SDS011;52340;-6.720;108.544;2023-10-09T00:00:19;89.18;;;56.72;;
65641;SDS011;52340;-6.720;108.544;2023-10-09T00:01:20;86.40;;;56.63;;
65641;SDS011;52340;-6.720;108.544;2023-10-09T00:02:22;89.45;;;55.75;;
65641;SDS011;52340;-6.720;108.544;2023-10-09T00:03:24;84.55;;;54.92;;
65641;SDS011;52340;-6.720;108.544;2023-10-09T00:04:25;85.15;;;56.05;;
65641;SDS011;52340;-6.720;108.544;2023-10-09T00:05:30;89.15;;;56.58;;
65641;SDS011;52340;-6.720;108.544;2023-10-09T00:06:31;83.53;;;56.15;;
65641;SDS011;52340;-6.720;108.544;2023-10-09T00:07:35;96.00;;;57.40;;
65641;SDS011;52340;-6.720;108.544;2023-10-09T00:08:39;93.45;;;56.88;;
65641;SDS011;52340;-6.720;108.544;2023-10-09T00:09:41;92.15;;;58.42;;
65641;SDS011;52340;-6.720;108.544;2023-10-09T00:10:42;86.63;;;57.95;;
65641;SDS011;52340;-6.720;108.544;2023-10-09T00:11:44;81.95;;;57.75;;
65641;SDS011;52340;-6.720;108.544;2023-10-09T00:12:46;100.70;;;60.72;;
65641;SDS011;52340;-6.720;108.544;2023-10-09T00:13:47;95.55;;;62.28;;
65641;SDS011;52340;-6.720;108.544;2023-10-09T00:14:49;94.57;;;59.95;;
65641;SDS011;52340;-6.720;108.544;2023-10-09T00:15:51;102.18;;;63.50;;
65641;SDS011;52340;-6.720;108.544;2023-10-09T00:16:53;103.22;;;62.40;;
65641;SDS011;52340;-6.720;108.544;2023-10-09T00:17:54;103.03;;;63.70;;
65641;SDS011;52340;-6.720;108.544;2023-10-09T00:18:56;104.80;;;64.65;;
65641;SDS011;52340;-6.720;108.544;2023-10-09T00:19:58;94.80;;;63.72;;
65641;SDS011;52340;-6.720;108.544;2023-10-09T00:21:00;103.00;;;63.10;;
65641;SDS011;52340;-6.720;108.544;2023-10-09T00:22:02;97.20;;;61.47;;
65641;SDS011;52340;-6.720;108.544;2023-10-09T00:23:03;98.95;;;62.40;;
65641;SDS011;52340;-6.720;108.544;2023-10-09T00:24:07;109.63;;;65.07;;
65641;SDS011;52340;-6.720;108.544;2023-10-09T00:25:08;106.40;;;64.20;;
65641;SDS011;52340;-6.720;108.544;2023-10-09T00:26:10;99.95;;;62.22;;
65641;SDS011;52340;-6.720;108.544;2023-10-09T00:27:12;101.97;;;59.60;;
65641;SDS011;52340;-6.720;108.544;2023-10-09T00:28:14;96.25;;;59.22;;
65641;SDS011;52340;-6.720;108.544;2023-10-09T00:29:15;99.88;;;61.40;;
65641;SDS011;52340;-6.720;108.544;2023-10-09T00:30:17;97.95;;;61.50;;
65641;SDS011;52340;-6.720;108.544;2023-10-09T00:31:19;91.60;;;59.45;;
65641;SDS011;52340;-6.720;108.544;2023-10-09T00:32:21;90.10;;;58.20;;
65641;SDS011;52340;-6.720;108.544;2023-10-09T00:33:25;89.30;;;58.42;;
65641;SDS011;52340;-6.720;108.544;2023-10-09T00:34:27;90.25;;;60.92;;
65641;SDS011;52340;-6.720;108.544;2023-10-09T00:35:28;101.07;;;68.13;;
65641;SDS011;52340;-6.720;108.544;2023-10-09T00:36:30;112.50;;;71.93;;
65641;SDS011;52340;-6.720;108.544;2023-10-09T00:37:32;103.18;;;69.32;;
65641;SDS011;52340;-6.720;108.544;2023-10-09T00:38:33;113.85;;;79.63;;
65641;SDS011;52340;-6.720;108.544;2023-10-09T00:39:37;113.05;;;77.63;;
65641;SDS011;52340;-6.720;108.544;2023-10-09T00:40:39;115.05;;;75.70;;
65641;SDS011;52340;-6.720;108.544;2023-10-09T00:41:41;113.22;;;76.53;;
65641;SDS011;52340;-6.720;108.544;2023-10-09T00:42:47;110.53;;;77.00;;
65641;SDS011;52340;-6.720;108.544;2023-10-09T00:43:49;109.90;;;74.53;;
65641;SDS011;52340;-6.720;108.544;2023-10-09T00:44:50;109.20;;;72.90;;
65641;SDS011;52340;-6.720;108.544;2023-10-09T00:45:52;104.85;;;69.60;;
65641;SDS011;52340;-6.720;108.544;2023-10-09T00:46:54;103.32;;;70.78;;
65641;SDS011;52340;-6.720;108.544;2023-10-09T00:47:56;110.22;;;71.95;;
65641;SDS011;52340;-6.720;108.544;2023-10-09T00:48:57;102.85;;;68.18;;
65641;SDS011;52340;-6.720;108.544;2023-10-09T00:50:01;104.55;;;72.13;;
65641;SDS011;52340;-6.720;108.544;2023-10-09T00:51:03;105.60;;;71.07;;
65641;SDS011;52340;-6.720;108.544;2023-10-09T00:52:05;107.00;;;68.75;;
65641;SDS011;52340;-6.720;108.544;2023-10-09T00:53:07;104.35;;;67.93;;
65641;SDS011;52340;-6.720;108.544;2023-10-09T00:54:11;100.25;;;65.38;;
65641;SDS011;52340;-6.720;108.544;2023-10-09T00:55:14;98.80;;;66.50;;
65641;SDS011;52340;-6.720;108.544;2023-10-09T00:56:20;101.05;;;66.53;;
65641;SDS011;52340;-6.720;108.544;2023-10-09T00:57:22;95.95;;;64.68;;
65641;SDS011;52340;-6.720;108.544;2023-10-09T00:58:24;99.38;;;66.18;;
65641;SDS011;52340;-6.720;108.544;2023-10-09T00:59:25;96.72;;;63.60;;
65641;SDS011;52340;-6.720;108.544;2023-10-09T01:00:27;103.40;;;64.97;;
65641;SDS011;52340;-6.720;108.544;2023-10-09T01:01:29;101.78;;;63.42;;
65641;SDS011;52340;-6.720;108.544;2023-10-09T01:02:31;99.90;;;63.00;;
65641;SDS011;52340;-6.720;108.544;2023-10-09T01:03:32;97.35;;;64.15;;
65641;SDS011;52340;-6.720;108.544;2023-10-09T01:04:34;95.68;;;61.85;;
65641;SDS011;52340;-6.720;108.544;2023-10-09T01:05:36;94.03;;;58.72;;
65641;SDS011;52340;-6.720;108.544;2023-10-09T01:06:37;96.70;;;60.17;;
65641;SDS011;52340;-6.720;108.544;2023-10-09T01:07:40;89.22;;;59.05;;
65641;SDS011;52340;-6.720;108.544;2023-10-09T01:08:42;95.68;;;60.42;;
65641;SDS011;52340;-6.720;108.544;2023-10-09T01:09:43;162.60;;;81.13;;
65641;SDS011;52340;-6.720;108.544;2023-10-09T01:10:47;136.07;;;75.28;;
65641;SDS011;52340;-6.720;108.544;2023-10-09T01:11:51;214.32;;;95.97;;
65641;SDS011;52340;-6.720;108.544;2023-10-09T01:12:53;187.57;;;85.82;;
65641;SDS011;52340;-6.720;108.544;2023-10-09T01:13:55;109.32;;;66.47;;
65641;SDS011;52340;-6.720;108.544;2023-10-09T01:14:56;105.47;;;67.45;;
65641;SDS011;52340;-6.720;108.544;2023-10-09T01:15:58;112.82;;;69.43;;
65641;SDS011;52340;-6.720;108.544;2023-10-09T01:17:00;156.77;;;80.55;;
65641;SDS011;52340;-6.720;108.544;2023-10-09T01:18:02;171.45;;;83.35;;
65641;SDS011;52340;-6.720;108.544;2023-10-09T01:19:04;164.73;;;78.30;;
65641;SDS011;52340;-6.720;108.544;2023-10-09T01:20:06;112.68;;;65.78;;
65641;SDS011;52340;-6.720;108.544;2023-10-09T01:21:11;144.45;;;71.65;;
65641;SDS011;52340;-6.720;108.544;2023-10-09T01:22:13;148.68;;;73.55;;
65641;SDS011;52340;-6.720;108.544;2023-10-09T01:23:16;148.27;;;70.75;;
65641;SDS011;52340;-6.720;108.544;2023-10-09T01:24:18;146.63;;;70.13;;
65641;SDS011;52340;-6.720;108.544;2023-10-09T01:25:20;153.95;;;70.05;;
65641;SDS011;52340;-6.720;108.544;2023-10-09T01:26:21;128.73;;;65.65;;
65641;SDS011;52340;-6.720;108.544;2023-10-09T01:27:23;145.98;;;70.10;;
65641;SDS011;52340;-6.720;108.544;2023-10-09T01:28:25;147.30;;;67.05;;
65641;SDS011;52340;-6.720;108.544;2023-10-09T01:29:29;148.57;;;68.47;;
65641;SDS011;52340;-6.720;108.544;2023-10-09T01:30:31;149.05;;;73.05;;
65641;SDS011;52340;-6.720;108.544;2023-10-09T01:31:32;82.53;;;53.22;;
65641;SDS011;52340;-6.720;108.544;2023-10-09T01:32:34;92.82;;;54.45;;
65641;SDS011;52340;-6.720;108.544;2023-10-09T01:33:35;77.93;;;49.55;;
65641;SDS011;52340;-6.720;108.544;2023-10-09T01:34:37;74.05;;;49.35;;
65641;SDS011;52340;-6.720;108.544;2023-10-09T01:35:39;61.28;;;45.30;;
65641;SDS011;52340;-6.720;108.544;2023-10-09T01:36:40;75.35;;;48.33;;
65641;SDS011;52340;-6.720;108.544;2023-10-09T01:37:45;80.45;;;51.60;;
65641;SDS011;52340;-6.720;108.544;2023-10-09T01:38:48;101.60;;;57.20;;
65641;SDS011;52340;-6.720;108.544;2023-10-09T01:39:50;90.70;;;53.92;;
65641;SDS011;52340;-6.720;108.544;2023-10-09T01:40:52;93.78;;;55.22;;
65641;SDS011;52340;-6.720;108.544;2023-10-09T01:41:56;97.97;;;55.80;;
65641;SDS011;52340;-6.720;108.544;2023-10-09T01:42:57;93.00;;;53.78;;
65641;SDS011;52340;-6.720;108.544;2023-10-09T01:43:59;71.50;;;46.30;;
65641;SDS011;52340;-6.720;108.544;2023-10-09T01:45:01;61.63;;;42.85;;
65641;SDS011;52340;-6.720;108.544;2023-10-09T01:46:03;73.63;;;45.72;;
65641;SDS011;52340;-6.720;108.544;2023-10-09T01:47:04;70.10;;;44.33;;
65641;SDS011;52340;-6.720;108.544;2023-10-09T01:48:06;56.95;;;37.97;;
65641;SDS011;52340;-6.720;108.544;2023-10-09T01:49:08;60.38;;;42.45;;
65641;SDS011;52340;-6.720;108.544;2023-10-09T01:50:09;58.35;;;40.13;;
65641;SDS011;52340;-6.720;108.544;2023-10-09T01:51:13;56.50;;;38.15;;
65641;SDS011;52340;-6.720;108.544;2023-10-09T01:52:15;53.60;;;37.05;;
65641;SDS011;52340;-6.720;108.544;2023-10-09T01:53:17;57.92;;;38.42;;
65641;SDS011;52340;-6.720;108.544;2023-10-09T01:54:20;65.93;;;38.58;;
65641;SDS011;52340;-6.720;108.544;2023-10-09T01:55:22;60.35;;;39.70;;
65641;SDS011;52340;-6.720;108.544;2023-10-09T01:56:24;57.00;;;36.88;;
65641;SDS011;52340;-6.720;108.544;2023-10-09T01:57:26;56.45;;;38.25;;
65641;SDS011;52340;-6.720;108.544;2023-10-09T01:58:28;60.08;;;37.25;;
65641;SDS011;52340;-6.720;108.544;2023-10-09T01:59:29;53.60;;;35.67;;
65641;SDS011;52340;-6.720;108.544;2023-10-09T02:00:31;51.25;;;35.88;;
65641;SDS011;52340;-6.720;108.544;2023-10-09T02:01:33;54.47;;;34.95;;
65641;SDS011;52340;-6.720;108.544;2023-10-09T02:02:35;54.17;;;36.08;;
65641;SDS011;52340;-6.720;108.544;2023-10-09T02:03:39;56.05;;;36.95;;
65641;SDS011;52340;-6.720;108.544;2023-10-09T02:04:41;49.33;;;36.15;;
65641;SDS011;52340;-6.720;108.544;2023-10-09T02:05:43;51.90;;;34.95;;
65641;SDS011;52340;-6.720;108.544;2023-10-09T02:06:47;48.47;;;33.33;;
65641;SDS011;52340;-6.720;108.544;2023-10-09T02:07:49;43.90;;;32.15;;
65641;SDS011;52340;-6.720;108.544;2023-10-09T02:08:52;45.95;;;31.85;;
65641;SDS011;52340;-6.720;108.544;2023-10-09T02:09:56;47.13;;;31.98;;
65641;SDS011;52340;-6.720;108.544;2023-10-09T02:10:58;43.58;;;32.47;;
65641;SDS011;52340;-6.720;108.544;2023-10-09T02:11:59;40.15;;;30.45;;
65641;SDS011;52340;-6.720;108.544;2023-10-09T02:13:02;43.83;;;29.70;;
65641;SDS011;52340;-6.720;108.544;2023-10-09T02:14:14;44.97;;;29.42;;
65641;SDS011;52340;-6.720;108.544;2023-10-09T02:15:16;45.83;;;29.13;;
65641;SDS011;52340;-6.720;108.544;2023-10-09T02:16:20;43.78;;;28.27;;
65641;SDS011;52340;-6.720;108.544;2023-10-09T02:17:22;39.95;;;26.75;;
65641;SDS011;52340;-6.720;108.544;2023-10-09T02:18:23;37.55;;;26.42;;
65641;SDS011;52340;-6.720;108.544;2023-10-09T02:19:25;40.67;;;24.65;;
65641;SDS011;52340;-6.720;108.544;2023-10-09T02:20:27;33.50;;;24.50;;
65641;SDS011;52340;-6.720;108.544;2023-10-09T02:21:28;32.80;;;22.67;;
65641;SDS011;52340;-6.720;108.544;2023-10-09T02:22:30;34.72;;;24.27;;
65641;SDS011;52340;-6.720;108.544;2023-10-09T02:23:32;34.13;;;23.70;;
65641;SDS011;52340;-6.720;108.544;2023-10-09T02:24:34;31.05;;;22.00;;
65641;SDS011;52340;-6.720;108.544;2023-10-09T02:25:37;28.55;;;21.35;;
65641;SDS011;52340;-6.720;108.544;2023-10-09T02:26:39;31.20;;;20.98;;
65641;SDS011;52340;-6.720;108.544;2023-10-09T02:27:41;32.00;;;22.90;;
65641;SDS011;52340;-6.720;108.544;2023-10-09T02:28:42;33.35;;;22.73;;
65641;SDS011;52340;-6.720;108.544;2023-10-09T02:29:44;31.67;;;23.27;;
65641;SDS011;52340;-6.720;108.544;2023-10-09T02:30:46;31.45;;;22.42;;
65641;SDS011;52340;-6.720;108.544;2023-10-09T02:31:48;30.77;;;22.02;;
65641;SDS011;52340;-6.720;108.544;2023-10-09T02:32:49;30.08;;;22.67;;
65641;SDS011;52340;-6.720;108.544;2023-10-09T02:33:51;30.58;;;22.58;;
65641;SDS011;52340;-6.720;108.544;2023-10-09T02:34:53;29.98;;;21.10;;
65641;SDS011;52340;-6.720;108.544;2023-10-09T02:36:02;29.65;;;21.50;;
65641;SDS011;52340;-6.720;108.544;2023-10-09T02:37:03;32.17;;;21.67;;
65641;SDS011;52340;-6.720;108.544;2023-10-09T02:38:08;29.17;;;20.77;;
65641;SDS011;52340;-6.720;108.544;2023-10-09T02:39:10;29.92;;;19.65;;
65641;SDS011;52340;-6.720;108.544;2023-10-09T02:40:11;29.40;;;20.38;;
65641;SDS011;52340;-6.720;108.544;2023-10-09T02:41:15;27.48;;;20.15;;
65641;SDS011;52340;-6.720;108.544;2023-10-09T02:42:16;27.73;;;20.02;;
65641;SDS011;52340;-6.720;108.544;2023-10-09T02:43:18;28.33;;;20.23;;
65641;SDS011;52340;-6.720;108.544;2023-10-09T02:44:20;24.92;;;19.15;;
65641;SDS011;52340;-6.720;108.544;2023-10-09T02:45:21;27.27;;;19.48;;
65641;SDS011;52340;-6.720;108.544;2023-10-09T02:46:23;30.90;;;19.90;;
65641;SDS011;52340;-6.720;108.544;2023-10-09T02:47:24;31.83;;;20.17;;
65641;SDS011;52340;-6.720;108.544;2023-10-09T02:48:26;26.75;;;20.30;;
65641;SDS011;52340;-6.720;108.544;2023-10-09T02:49:28;35.53;;;20.60;;
65641;SDS011;52340;-6.720;108.544;2023-10-09T02:50:29;30.40;;;20.25;;
65641;SDS011;52340;-6.720;108.544;2023-10-09T02:51:31;28.58;;;19.23;;
65641;SDS011;52340;-6.720;108.544;2023-10-09T02:52:33;27.30;;;19.27;;
65641;SDS011;52340;-6.720;108.544;2023-10-09T02:53:34;25.95;;;17.92;;
65641;SDS011;52340;-6.720;108.544;2023-10-09T02:54:36;26.90;;;18.63;;
65641;SDS011;52340;-6.720;108.544;2023-10-09T02:55:43;24.48;;;18.63;;
65641;SDS011;52340;-6.720;108.544;2023-10-09T02:56:48;26.20;;;18.90;;
65641;SDS011;52340;-6.720;108.544;2023-10-09T02:57:51;29.55;;;18.08;;
65641;SDS011;52340;-6.720;108.544;2023-10-09T02:58:52;25.58;;;18.05;;
65641;SDS011;52340;-6.720;108.544;2023-10-09T02:59:54;26.38;;;18.08;;
65641;SDS011;52340;-6.720;108.544;2023-10-09T03:00:58;26.63;;;18.88;;
65641;SDS011;52340;-6.720;108.544;2023-10-09T03:02:00;24.17;;;17.50;;
65641;SDS011;52340;-6.720;108.544;2023-10-09T03:03:02;25.27;;;18.45;;
65641;SDS011;52340;-6.720;108.544;2023-10-09T03:04:04;24.45;;;17.85;;
65641;SDS011;52340;-6.720;108.544;2023-10-09T03:05:06;27.58;;;18.55;;
65641;SDS011;52340;-6.720;108.544;2023-10-09T03:06:08;27.40;;;18.60;;
65641;SDS011;52340;-6.720;108.544;2023-10-09T03:07:12;25.10;;;17.90;;
65641;SDS011;52340;-6.720;108.544;2023-10-09T03:08:17;25.85;;;17.83;;
65641;SDS011;52340;-6.720;108.544;2023-10-09T03:09:18;26.77;;;17.52;;
65641;SDS011;52340;-6.720;108.544;2023-10-09T03:10:21;26.50;;;17.95;;
65641;SDS011;52340;-6.720;108.544;2023-10-09T03:11:23;24.30;;;18.50;;
65641;SDS011;52340;-6.720;108.544;2023-10-09T03:12:26;27.90;;;18.85;;
65641;SDS011;52340;-6.720;108.544;2023-10-09T03:13:28;25.13;;;18.98;;
65641;SDS011;52340;-6.720;108.544;2023-10-09T03:14:34;26.25;;;19.20;;
65641;SDS011;52340;-6.720;108.544;2023-10-09T03:15:36;25.95;;;18.50;;
65641;SDS011;52340;-6.720;108.544;2023-10-09T03:16:39;26.85;;;18.10;;
65641;SDS011;52340;-6.720;108.544;2023-10-09T03:17:41;24.50;;;18.05;;
65641;SDS011;52340;-6.720;108.544;2023-10-09T03:18:43;24.33;;;16.40;;
65641;SDS011;52340;-6.720;108.544;2023-10-09T03:19:44;24.50;;;16.65;;
65641;SDS011;52340;-6.720;108.544;2023-10-09T03:20:46;28.65;;;18.85;;
65641;SDS011;52340;-6.720;108.544;2023-10-09T03:21:48;24.30;;;16.75;;
65641;SDS011;52340;-6.720;108.544;2023-10-09T03:22:49;25.05;;;16.90;;
65641;SDS011;52340;-6.720;108.544;2023-10-09T03:23:51;21.83;;;15.85;;
65641;SDS011;52340;-6.720;108.544;2023-10-09T03:24:53;22.38;;;16.08;;
65641;SDS011;52340;-6.720;108.544;2023-10-09T03:25:54;26.92;;;16.00;;
65641;SDS011;52340;-6.720;108.544;2023-10-09T03:26:56;23.88;;;16.13;;
65641;SDS011;52340;-6.720;108.544;2023-10-09T03:27:59;29.88;;;20.25;;
65641;SDS011;52340;-6.720;108.544;2023-10-09T03:29:01;27.92;;;17.63;;
65641;SDS011;52340;-6.720;108.544;2023-10-09T03:30:03;28.98;;;18.27;;
65641;SDS011;52340;-6.720;108.544;2023-10-09T03:31:05;28.05;;;19.58;;
65641;SDS011;52340;-6.720;108.544;2023-10-09T03:32:06;30.50;;;20.05;;
65641;SDS011;52340;-6.720;108.544;2023-10-09T03:33:08;28.60;;;18.85;;
65641;SDS011;52340;-6.720;108.544;2023-10-09T03:34:10;28.98;;;18.17;;
65641;SDS011;52340;-6.720;108.544;2023-10-09T03:35:11;25.23;;;17.92;;
65641;SDS011;52340;-6.720;108.544;2023-10-09T03:36:13;28.65;;;18.40;;
65641;SDS011;52340;-6.720;108.544;2023-10-09T03:37:15;23.40;;;16.40;;
65641;SDS011;52340;-6.720;108.544;2023-10-09T03:38:16;29.27;;;17.88;;
65641;SDS011;52340;-6.720;108.544;2023-10-09T03:39:18;27.65;;;17.40;;
65641;SDS011;52340;-6.720;108.544;2023-10-09T03:40:20;28.25;;;17.63;;
65641;SDS011;52340;-6.720;108.544;2023-10-09T03:41:21;25.27;;;17.10;;
65641;SDS011;52340;-6.720;108.544;2023-10-09T03:42:23;26.77;;;16.98;;
65641;SDS011;52340;-6.720;108.544;2023-10-09T03:43:26;25.02;;;18.15;;
65641;SDS011;52340;-6.720;108.544;2023-10-09T03:44:28;26.02;;;17.95;;
65641;SDS011;52340;-6.720;108.544;2023-10-09T03:45:30;23.15;;;17.23;;
65641;SDS011;52340;-6.720;108.544;2023-10-09T03:46:32;24.23;;;17.40;;
65641;SDS011;52340;-6.720;108.544;2023-10-09T03:47:33;24.88;;;17.80;;
65641;SDS011;52340;-6.720;108.544;2023-10-09T03:48:35;29.63;;;20.77;;
65641;SDS011;52340;-6.720;108.544;2023-10-09T03:49:36;33.22;;;20.77;;
65641;SDS011;52340;-6.720;108.544;2023-10-09T03:50:38;32.13;;;19.98;;
65641;SDS011;52340;-6.720;108.544;2023-10-09T03:51:40;29.98;;;19.73;;
65641;SDS011;52340;-6.720;108.544;2023-10-09T03:52:41;28.42;;;20.42;;
65641;SDS011;52340;-6.720;108.544;2023-10-09T03:53:43;31.17;;;19.90;;
65641;SDS011;52340;-6.720;108.544;2023-10-09T03:54:45;28.70;;;19.05;;
65641;SDS011;52340;-6.720;108.544;2023-10-09T03:55:46;28.95;;;19.13;;
65641;SDS011;52340;-6.720;108.544;2023-10-09T03:56:48;26.20;;;18.35;;
65641;SDS011;52340;-6.720;108.544;2023-10-09T03:57:50;33.60;;;19.63;;
65641;SDS011;52340;-6.720;108.544;2023-10-09T03:59:02;24.73;;;18.77;;
65641;SDS011;52340;-6.720;108.544;2023-10-09T04:00:04;30.17;;;19.13;;
65641;SDS011;52340;-6.720;108.544;2023-10-09T04:01:09;25.67;;;17.85;;
65641;SDS011;52340;-6.720;108.544;2023-10-09T04:02:11;25.67;;;18.17;;
65641;SDS011;52340;-6.720;108.544;2023-10-09T04:03:13;25.20;;;18.70;;
65641;SDS011;52340;-6.720;108.544;2023-10-09T04:04:15;24.58;;;17.92;;
65641;SDS011;52340;-6.720;108.544;2023-10-09T04:05:16;25.63;;;17.40;;
65641;SDS011;52340;-6.720;108.544;2023-10-09T04:06:18;26.88;;;18.20;;
65641;SDS011;52340;-6.720;108.544;2023-10-09T04:07:20;29.50;;;18.70;;
65641;SDS011;52340;-6.720;108.544;2023-10-09T04:08:21;24.88;;;17.55;;
65641;SDS011;52340;-6.720;108.544;2023-10-09T04:09:23;26.80;;;18.42;;
65641;SDS011;52340;-6.720;108.544;2023-10-09T04:10:25;24.33;;;18.70;;
65641;SDS011;52340;-6.720;108.544;2023-10-09T04:11:29;26.58;;;18.13;;
65641;SDS011;52340;-6.720;108.544;2023-10-09T04:12:31;27.15;;;17.65;;
65641;SDS011;52340;-6.720;108.544;2023-10-09T04:13:32;23.90;;;17.52;;
65641;SDS011;52340;-6.720;108.544;2023-10-09T04:14:36;22.75;;;16.75;;
65641;SDS011;52340;-6.720;108.544;2023-10-09T04:15:38;22.90;;;17.10;;
65641;SDS011;52340;-6.720;108.544;2023-10-09T04:16:40;24.10;;;17.58;;
65641;SDS011;52340;-6.720;108.544;2023-10-09T04:17:41;26.88;;;18.58;;
65641;SDS011;52340;-6.720;108.544;2023-10-09T04:18:43;26.15;;;18.38;;
65641;SDS011;52340;-6.720;108.544;2023-10-09T04:19:45;24.60;;;18.27;;
65641;SDS011;52340;-6.720;108.544;2023-10-09T04:20:46;23.15;;;17.17;;
65641;SDS011;52340;-6.720;108.544;2023-10-09T04:21:48;24.48;;;16.70;;
65641;SDS011;52340;-6.720;108.544;2023-10-09T04:22:50;27.50;;;17.80;;
65641;SDS011;52340;-6.720;108.544;2023-10-09T04:23:52;28.17;;;17.95;;
65641;SDS011;52340;-6.720;108.544;2023-10-09T04:24:53;27.00;;;17.50;;
65641;SDS011;52340;-6.720;108.544;2023-10-09T04:25:55;26.83;;;18.27;;
65641;SDS011;52340;-6.720;108.544;2023-10-09T04:26:56;27.67;;;18.17;;
65641;SDS011;52340;-6.720;108.544;2023-10-09T04:27:59;30.27;;;18.50;;
65641;SDS011;52340;-6.720;108.544;2023-10-09T04:29:01;25.30;;;17.98;;
65641;SDS011;52340;-6.720;108.544;2023-10-09T04:30:04;30.30;;;19.00;;
65641;SDS011;52340;-6.720;108.544;2023-10-09T04:31:07;30.95;;;18.85;;
65641;SDS011;52340;-6.720;108.544;2023-10-09T04:32:09;25.38;;;19.05;;
65641;SDS011;52340;-6.720;108.544;2023-10-09T04:33:11;27.45;;;19.00;;
65641;SDS011;52340;-6.720;108.544;2023-10-09T04:34:13;29.48;;;18.65;;
65641;SDS011;52340;-6.720;108.544;2023-10-09T04:35:14;23.88;;;16.83;;
65641;SDS011;52340;-6.720;108.544;2023-10-09T04:36:16;23.88;;;18.58;;
65641;SDS011;52340;-6.720;108.544;2023-10-09T04:37:18;31.20;;;18.10;;
65641;SDS011;52340;-6.720;108.544;2023-10-09T04:38:19;27.88;;;19.58;;
65641;SDS011;52340;-6.720;108.544;2023-10-09T04:39:21;28.08;;;20.73;;
65641;SDS011;52340;-6.720;108.544;2023-10-09T04:40:23;32.65;;;21.42;;
65641;SDS011;52340;-6.720;108.544;2023-10-09T04:41:24;31.48;;;21.73;;
65641;SDS011;52340;-6.720;108.544;2023-10-09T04:42:28;34.30;;;22.48;;
65641;SDS011;52340;-6.720;108.544;2023-10-09T04:43:30;33.42;;;21.10;;
65641;SDS011;52340;-6.720;108.544;2023-10-09T04:44:31;32.20;;;21.67;;
65641;SDS011;52340;-6.720;108.544;2023-10-09T04:45:37;29.75;;;21.00;;
65641;SDS011;52340;-6.720;108.544;2023-10-09T04:46:38;34.22;;;22.33;;
65641;SDS011;52340;-6.720;108.544;2023-10-09T04:47:40;35.35;;;21.45;;
65641;SDS011;52340;-6.720;108.544;2023-10-09T04:48:42;33.15;;;22.45;;
65641;SDS011;52340;-6.720;108.544;2023-10-09T04:49:44;31.52;;;20.27;;
65641;SDS011;52340;-6.720;108.544;2023-10-09T04:50:49;33.65;;;21.25;;
65641;SDS011;52340;-6.720;108.544;2023-10-09T04:51:51;27.90;;;20.65;;
65641;SDS011;52340;-6.720;108.544;2023-10-09T04:52:52;29.25;;;20.08;;
65641;SDS011;52340;-6.720;108.544;2023-10-09T04:53:54;29.77;;;20.40;;
65641;SDS011;52340;-6.720;108.544;2023-10-09T04:54:56;27.52;;;20.73;;
65641;SDS011;52340;-6.720;108.544;2023-10-09T04:55:57;27.25;;;20.40;;
65641;SDS011;52340;-6.720;108.544;2023-10-09T04:56:59;28.48;;;20.20;;
65641;SDS011;52340;-6.720;108.544;2023-10-09T04:58:01;26.60;;;19.45;;
65641;SDS011;52340;-6.720;108.544;2023-10-09T04:59:02;30.33;;;19.90;;
65641;SDS011;52340;-6.720;108.544;2023-10-09T05:00:07;27.65;;;20.40;;
65641;SDS011;52340;-6.720;108.544;2023-10-09T05:01:11;30.52;;;20.15;;
65641;SDS011;52340;-6.720;108.544;2023-10-09T05:02:13;26.15;;;20.00;;
65641;SDS011;52340;-6.720;108.544;2023-10-09T05:03:17;33.15;;;20.13;;
65641;SDS011;52340;-6.720;108.544;2023-10-09T05:04:18;31.85;;;21.52;;
65641;SDS011;52340;-6.720;108.544;2023-10-09T05:05:20;29.65;;;19.77;;
65641;SDS011;52340;-6.720;108.544;2023-10-09T05:06:22;28.05;;;19.55;;
65641;SDS011;52340;-6.720;108.544;2023-10-09T05:07:23;26.55;;;20.02;;
65641;SDS011;52340;-6.720;108.544;2023-10-09T05:08:28;35.75;;;24.13;;
65641;SDS011;52340;-6.720;108.544;2023-10-09T05:09:29;34.85;;;23.48;;
65641;SDS011;52340;-6.720;108.544;2023-10-09T05:10:31;29.90;;;21.40;;
65641;SDS011;52340;-6.720;108.544;2023-10-09T05:11:33;25.67;;;18.23;;
65641;SDS011;52340;-6.720;108.544;2023-10-09T05:12:35;21.20;;;16.48;;
65641;SDS011;52340;-6.720;108.544;2023-10-09T05:13:37;23.80;;;16.67;;
65641;SDS011;52340;-6.720;108.544;2023-10-09T05:14:38;22.65;;;16.88;;
65641;SDS011;52340;-6.720;108.544;2023-10-09T05:15:40;23.65;;;15.93;;
65641;SDS011;52340;-6.720;108.544;2023-10-09T05:16:43;22.42;;;15.93;;
65641;SDS011;52340;-6.720;108.544;2023-10-09T05:17:48;28.20;;;20.45;;
65641;SDS011;52340;-6.720;108.544;2023-10-09T05:18:49;24.48;;;18.45;;
65641;SDS011;52340;-6.720;108.544;2023-10-09T05:19:51;27.67;;;19.45;;
65641;SDS011;52340;-6.720;108.544;2023-10-09T05:20:53;26.67;;;18.42;;
65641;SDS011;52340;-6.720;108.544;2023-10-09T05:21:54;24.75;;;18.77;;
65641;SDS011;52340;-6.720;108.544;2023-10-09T05:22:56;25.65;;;18.88;;
65641;SDS011;52340;-6.720;108.544;2023-10-09T05:23:57;30.55;;;20.58;;
65641;SDS011;52340;-6.720;108.544;2023-10-09T05:24:59;26.88;;;20.48;;
65641;SDS011;52340;-6.720;108.544;2023-10-09T05:26:01;27.63;;;20.80;;
65641;SDS011;52340;-6.720;108.544;2023-10-09T05:27:03;31.42;;;22.88;;
65641;SDS011;52340;-6.720;108.544;2023-10-09T05:28:09;33.17;;;22.63;;
65641;SDS011;52340;-6.720;108.544;2023-10-09T05:29:14;29.55;;;20.65;;
65641;SDS011;52340;-6.720;108.544;2023-10-09T05:30:18;31.95;;;21.30;;
65641;SDS011;52340;-6.720;108.544;2023-10-09T05:31:19;27.60;;;20.88;;
65641;SDS011;52340;-6.720;108.544;2023-10-09T05:32:23;27.35;;;19.75;;
65641;SDS011;52340;-6.720;108.544;2023-10-09T05:33:24;25.63;;;18.80;;
65641;SDS011;52340;-6.720;108.544;2023-10-09T05:34:26;24.90;;;17.70;;
65641;SDS011;52340;-6.720;108.544;2023-10-09T05:35:28;24.83;;;18.25;;
65641;SDS011;52340;-6.720;108.544;2023-10-09T05:36:29;34.83;;;24.08;;
65641;SDS011;52340;-6.720;108.544;2023-10-09T05:37:32;29.92;;;21.65;;
65641;SDS011;52340;-6.720;108.544;2023-10-09T05:38:33;30.30;;;20.65;;
65641;SDS011;52340;-6.720;108.544;2023-10-09T05:39:35;31.17;;;20.83;;
65641;SDS011;52340;-6.720;108.544;2023-10-09T05:40:37;43.50;;;28.42;;
65641;SDS011;52340;-6.720;108.544;2023-10-09T05:41:38;33.75;;;23.38;;
65641;SDS011;52340;-6.720;108.544;2023-10-09T05:42:40;44.35;;;28.00;;
65641;SDS011;52340;-6.720;108.544;2023-10-09T05:43:42;40.80;;;26.67;;
65641;SDS011;52340;-6.720;108.544;2023-10-09T05:44:43;35.67;;;24.45;;
65641;SDS011;52340;-6.720;108.544;2023-10-09T05:45:45;47.00;;;30.40;;
65641;SDS011;52340;-6.720;108.544;2023-10-09T05:46:47;47.35;;;30.45;;
65641;SDS011;52340;-6.720;108.544;2023-10-09T05:47:50;54.60;;;35.00;;
65641;SDS011;52340;-6.720;108.544;2023-10-09T05:48:52;44.53;;;30.38;;
65641;SDS011;52340;-6.720;108.544;2023-10-09T05:49:54;48.42;;;31.38;;
65641;SDS011;52340;-6.720;108.544;2023-10-09T05:50:56;49.58;;;30.00;;
65641;SDS011;52340;-6.720;108.544;2023-10-09T05:51:57;41.40;;;28.60;;